createdAt,value
2023-02-03T00:01:28.206Z,27.83
2023-02-03T00:04:05.448Z,30.52
2023-02-03T00:06:36.617Z,26.98
2023-02-03T00:09:06.839Z,27.80
2023-02-03T00:11:34.636Z,26.60
2023-02-03T00:14:04.776Z,27.23
2023-02-03T00:16:34.944Z,26.67
2023-02-03T00:19:02.882Z,27.45
2023-02-03T00:21:33.088Z,28.85
2023-02-03T00:24:05.051Z,29.35
2023-02-03T00:26:33.210Z,27.65
2023-02-03T00:29:06.327Z,26.45
2023-02-03T00:31:34.472Z,28.55
2023-02-03T00:34:07.399Z,26.05
2023-02-03T00:36:38.172Z,27.88
2023-02-03T00:39:08.620Z,30.98
2023-02-03T00:41:43.381Z,30.92
2023-02-03T00:44:22.465Z,26.27
2023-02-03T00:46:50.519Z,29.30
2023-02-03T00:49:21.688Z,28.95
2023-02-03T00:51:51.084Z,27.45
2023-02-03T00:54:20.769Z,27.45
2023-02-03T00:56:49.007Z,29.52
2023-02-03T00:59:16.920Z,26.75
2023-02-03T01:01:44.864Z,27.25
2023-02-03T01:04:20.670Z,27.45
2023-02-03T01:06:48.559Z,28.42
2023-02-03T01:09:16.326Z,29.63
2023-02-03T01:11:46.635Z,27.75
2023-02-03T01:14:15.538Z,29.75
2023-02-03T01:16:43.643Z,27.15
2023-02-03T01:19:14.649Z,27.92
2023-02-03T01:21:42.812Z,26.92
2023-02-03T01:24:10.958Z,27.27
2023-02-03T01:26:40.652Z,27.42
2023-02-03T01:29:15.378Z,27.42
2023-02-03T01:31:43.426Z,26.38
2023-02-03T01:34:18.758Z,26.40
2023-02-03T01:36:48.833Z,24.88
2023-02-03T01:39:16.847Z,26.38
2023-02-03T01:41:47.003Z,27.00
2023-02-03T01:44:39.861Z,26.27
2023-02-03T01:47:34.042Z,25.48
2023-02-03T01:50:20.545Z,26.67
2023-02-03T01:52:56.400Z,25.92
2023-02-03T01:55:29.740Z,26.90
2023-02-03T01:58:02.896Z,27.50
2023-02-03T02:00:31.141Z,26.35
2023-02-03T02:03:05.536Z,27.98
2023-02-03T02:05:41.777Z,29.15
2023-02-03T02:08:20.315Z,27.92
2023-02-03T02:10:52.514Z,25.73
2023-02-03T02:13:20.644Z,24.50
2023-02-03T02:15:58.492Z,27.23
2023-02-03T02:21:40.124Z,26.67
2023-02-03T02:24:22.991Z,27.52
2023-02-03T02:27:11.406Z,26.92
2023-02-03T02:30:04.037Z,27.13
2023-02-03T02:32:57.957Z,28.20
2023-02-03T02:35:48.211Z,28.02
2023-02-03T02:38:39.607Z,28.02
2023-02-03T02:41:14.738Z,27.92
2023-02-03T02:44:11.780Z,26.38
2023-02-03T02:46:51.970Z,28.00
2023-02-03T02:49:44.439Z,28.55
2023-02-03T02:52:15.958Z,24.77
2023-02-03T02:54:55.169Z,25.83
2023-02-03T02:57:29.565Z,28.70
2023-02-03T02:59:57.564Z,27.80
2023-02-03T03:03:00.749Z,27.85
2023-02-03T03:05:32.156Z,27.98
2023-02-03T03:12:31.084Z,26.60
2023-02-03T03:15:07.501Z,27.75
2023-02-03T03:17:44.582Z,29.85
2023-02-03T03:20:16.617Z,28.15
2023-02-03T03:23:15.590Z,27.50
2023-02-03T03:25:50.948Z,27.73
2023-02-03T03:28:34.639Z,26.67
2023-02-03T03:31:12.549Z,28.92
2023-02-03T03:33:42.292Z,27.88
2023-02-03T03:36:22.602Z,28.95
2023-02-03T03:39:29.744Z,26.67
2023-02-03T03:42:05.124Z,26.42
2023-02-03T03:44:52.727Z,27.20
2023-02-03T03:47:35.784Z,27.70
2023-02-03T03:50:39.791Z,26.13
2023-02-03T03:53:21.792Z,25.40
2023-02-03T03:55:53.673Z,27.55
2023-02-03T03:58:38.348Z,27.40
2023-02-03T04:01:07.685Z,28.63
2023-02-03T04:03:57.847Z,26.77
2023-02-03T04:06:29.690Z,27.52
2023-02-03T04:09:06.124Z,26.58
2023-02-03T04:11:53.745Z,26.88
2023-02-03T04:14:28.697Z,28.58
2023-02-03T04:16:58.048Z,27.35
2023-02-03T04:19:31.491Z,26.17
2023-02-03T04:22:03.504Z,26.17
2023-02-03T04:24:34.807Z,27.00
2023-02-03T04:27:09.731Z,26.70
2023-02-03T04:30:07.164Z,26.67
2023-02-03T04:32:35.959Z,27.20
2023-02-03T04:35:11.821Z,26.65
2023-02-03T04:37:45.376Z,24.52
2023-02-03T04:40:21.404Z,27.30
2023-02-03T04:42:54.843Z,27.38
2023-02-03T04:45:29.722Z,23.92
2023-02-03T04:48:07.180Z,25.63
2023-02-03T04:50:44.368Z,26.23
2023-02-03T04:53:17.308Z,23.15
2023-02-03T04:55:50.444Z,25.92
2023-02-03T04:58:28.970Z,26.60
2023-02-03T05:01:09.446Z,25.17
2023-02-03T05:03:46.302Z,27.05
2023-02-03T05:06:14.739Z,27.50
2023-02-03T05:08:46.574Z,22.63
2023-02-03T05:11:19.182Z,24.45
2023-02-03T05:13:48.591Z,25.35
2023-02-03T05:16:22.585Z,26.60
2023-02-03T05:19:01.355Z,26.35
2023-02-03T05:21:31.190Z,27.65
2023-02-03T05:24:07.161Z,27.10
2023-02-03T05:26:56.234Z,24.80
2023-02-03T05:29:38.758Z,27.38
2023-02-03T05:32:31.747Z,28.55
2023-02-03T05:35:16.355Z,25.75
2023-02-03T05:37:47.587Z,26.00
2023-02-03T05:40:38.901Z,26.40
2023-02-03T05:43:08.160Z,27.55
2023-02-03T05:45:44.840Z,25.45
2023-02-03T05:48:12.845Z,25.75
2023-02-03T05:50:43.292Z,27.65
2023-02-03T05:54:28.902Z,26.05
2023-02-03T05:56:55.833Z,25.30
2023-02-03T05:59:32.553Z,24.88
2023-02-03T06:02:01.598Z,25.08
2023-02-03T06:04:41.520Z,26.55
2023-02-03T06:07:18.335Z,26.27
2023-02-03T06:09:51.371Z,24.67
2023-02-03T06:13:43.940Z,25.48
2023-02-03T06:16:15.078Z,23.98
2023-02-03T06:18:48.562Z,23.85
2023-02-03T06:21:19.669Z,24.88
2023-02-03T06:23:53.417Z,26.08
2023-02-03T06:26:21.583Z,24.52
2023-02-03T06:28:52.812Z,24.52
2023-02-03T06:31:23.384Z,25.00
2023-02-03T06:34:01.715Z,25.02
2023-02-03T06:36:31.514Z,26.63
2023-02-03T06:39:02.450Z,24.33
2023-02-03T06:41:31.490Z,21.05
2023-02-03T06:44:00.666Z,24.08
2023-02-03T06:46:37.243Z,25.13
2023-02-03T06:49:10.996Z,25.23
2023-02-03T06:51:57.775Z,23.45
2023-02-03T06:54:25.768Z,24.65
2023-02-03T06:57:02.569Z,24.88
2023-02-03T06:59:37.647Z,25.98
2023-02-03T07:02:11.592Z,25.25
2023-02-03T07:04:52.009Z,25.23
2023-02-03T07:07:32.684Z,27.17
2023-02-03T07:10:12.110Z,26.15
2023-02-03T07:12:48.597Z,25.08
2023-02-03T07:15:18.370Z,25.67
2023-02-03T07:17:54.815Z,25.67
2023-02-03T07:20:25.241Z,22.73
2023-02-03T07:22:56.762Z,24.15
2023-02-03T07:25:25.421Z,23.30
2023-02-03T07:27:55.526Z,22.70
2023-02-03T07:30:29.582Z,21.67
2023-02-03T07:33:00.795Z,23.38
2023-02-03T07:35:36.329Z,23.02
2023-02-03T07:40:37.698Z,22.67
2023-02-03T07:43:05.671Z,19.92
2023-02-03T07:45:36.294Z,20.45
2023-02-03T07:48:08.691Z,21.92
2023-02-03T07:50:57.909Z,22.30
2023-02-03T07:53:34.191Z,21.35
2023-02-03T07:56:13.718Z,20.98
2023-02-03T07:58:46.555Z,22.23
2023-02-03T08:01:16.918Z,21.90
2023-02-03T08:03:50.481Z,21.25
2023-02-03T08:06:31.165Z,19.92
2023-02-03T08:09:01.123Z,19.27
2023-02-03T08:11:39.543Z,22.08
2023-02-03T08:14:07.510Z,19.40
2023-02-03T08:16:41.099Z,22.00
2023-02-03T08:19:09.342Z,20.08
2023-02-03T08:21:39.602Z,18.70
2023-02-03T08:24:10.360Z,20.77
2023-02-03T08:26:38.621Z,20.55
2023-02-03T08:29:20.711Z,21.25
2023-02-03T08:32:00.333Z,22.50
2023-02-03T08:34:41.141Z,21.33
2023-02-03T08:37:15.202Z,19.80
2023-02-03T08:39:49.213Z,20.10
2023-02-03T08:42:23.587Z,21.70
2023-02-03T08:44:53.512Z,22.30
2023-02-03T08:47:26.576Z,20.73
2023-02-03T08:49:54.750Z,22.25
2023-02-03T08:52:42.838Z,21.67
2023-02-03T08:55:36.986Z,19.48
2023-02-03T08:58:18.081Z,22.25
2023-02-03T09:00:52.341Z,21.52
2023-02-03T09:03:28.749Z,21.63
2023-02-03T09:06:20.755Z,21.98
2023-02-03T09:09:35.052Z,21.98
2023-02-03T09:12:26.162Z,19.27
2023-02-03T09:15:22.608Z,20.55
2023-02-03T09:17:55.855Z,20.60
2023-02-03T09:20:44.566Z,18.42
2023-02-03T09:23:21.236Z,20.58
2023-02-03T09:25:58.843Z,16.83
2023-02-03T09:28:43.878Z,17.30
2023-02-03T09:31:30.499Z,15.05
2023-02-03T09:34:09.431Z,16.10
2023-02-03T09:36:51.787Z,16.05
2023-02-03T09:39:23.862Z,16.45
2023-02-03T09:42:10.295Z,15.68
2023-02-03T09:45:31.561Z,16.58
2023-02-03T09:48:23.433Z,17.63
2023-02-03T09:53:45.544Z,16.90
2023-02-03T09:56:24.995Z,19.45
2023-02-03T09:59:07.006Z,19.05
2023-02-03T10:01:57.119Z,18.85
2023-02-03T10:04:49.589Z,19.50
2023-02-03T10:08:22.566Z,16.98
2023-02-03T10:11:42.321Z,17.90
2023-02-03T10:14:25.697Z,17.33
2023-02-03T10:17:08.937Z,16.75
2023-02-03T10:19:56.174Z,18.48
2023-02-03T10:22:51.183Z,17.48
2023-02-03T10:25:49.978Z,18.10
2023-02-03T10:28:26.472Z,15.38
2023-02-03T10:31:15.417Z,17.05
2023-02-03T10:34:13.517Z,15.93
2023-02-03T10:37:02.141Z,15.82
2023-02-03T10:39:48.693Z,17.15
2023-02-03T10:42:25.515Z,15.55
2023-02-03T10:45:04.869Z,15.57
2023-02-03T10:47:48.674Z,16.17
2023-02-03T10:50:24.906Z,15.50
2023-02-03T10:53:20.808Z,15.32
2023-02-03T10:56:11.215Z,15.98
2023-02-03T10:58:49.863Z,15.48
2023-02-03T11:01:22.572Z,14.13
2023-02-03T11:04:03.337Z,15.05
2023-02-03T11:07:15.425Z,14.60
2023-02-03T11:09:45.806Z,13.38
2023-02-03T11:12:26.592Z,14.93
2023-02-03T11:15:03.088Z,13.57
2023-02-03T11:17:42.590Z,16.85
2023-02-03T11:20:16.109Z,15.90
2023-02-03T11:22:57.554Z,15.02
2023-02-03T11:25:55.377Z,14.75
2023-02-03T11:28:25.608Z,15.00
2023-02-03T11:31:04.754Z,13.43
2023-02-03T11:33:38.651Z,13.68
2023-02-03T11:36:15.272Z,12.35
2023-02-03T11:38:50.921Z,12.57
2023-02-03T11:41:44.349Z,13.00
2023-02-03T11:44:41.129Z,12.25
2023-02-03T11:47:19.781Z,13.77
2023-02-03T11:50:07.545Z,11.68
2023-02-03T11:53:23.981Z,11.30
2023-02-03T11:56:20.070Z,10.80
2023-02-03T12:06:03.001Z,10.03
2023-02-03T12:08:51.758Z,12.02
2023-02-03T12:11:36.490Z,12.63
2023-02-03T12:14:46.372Z,11.45
2023-02-03T12:17:25.462Z,10.23
2023-02-03T12:20:16.850Z,10.85
2023-02-03T12:22:48.700Z,10.70
2023-02-03T12:25:40.029Z,10.38
2023-02-03T12:28:33.238Z,10.60
2023-02-03T12:31:21.333Z,11.13
2023-02-03T12:33:59.190Z,9.80
2023-02-03T12:36:50.484Z,10.50
2023-02-03T12:39:34.383Z,10.32
2023-02-03T12:42:17.801Z,11.02
2023-02-03T12:44:59.363Z,11.18
2023-02-03T12:47:57.737Z,10.73
2023-02-03T12:50:47.109Z,10.00
2023-02-03T12:53:19.980Z,10.57
2023-02-03T12:55:56.527Z,10.93
2023-02-03T12:58:56.830Z,10.57
2023-02-03T13:01:46.486Z,11.32
2023-02-03T13:04:42.705Z,11.30
2023-02-03T13:07:28.558Z,13.07
2023-02-03T13:10:17.602Z,12.13
2023-02-03T13:12:59.216Z,10.38
2023-02-03T13:15:43.179Z,11.23
2023-02-03T13:18:34.560Z,10.98
2023-02-03T13:21:03.238Z,11.68
2023-02-03T13:23:34.941Z,10.23
2023-02-03T13:26:51.878Z,11.82
2023-02-03T13:29:44.925Z,11.07
2023-02-03T13:32:31.619Z,11.52
2023-02-03T13:35:33.896Z,11.50
2023-02-03T13:38:21.791Z,10.98
2023-02-03T13:41:12.052Z,12.32
2023-02-03T13:44:27.213Z,12.68
2023-02-03T13:47:42.996Z,12.55
2023-02-03T13:50:44.725Z,14.20
2023-02-03T13:53:29.069Z,15.40
2023-02-03T13:56:17.985Z,14.38
2023-02-03T13:59:18.199Z,14.95
2023-02-03T14:01:46.601Z,13.88
2023-02-03T14:04:36.509Z,14.73
2023-02-03T14:07:43.717Z,16.33
2023-02-03T14:10:27.738Z,15.15
2023-02-03T14:13:21.759Z,14.60
2023-02-03T14:16:21.909Z,15.35
2023-02-03T14:18:59.250Z,15.98
2023-02-03T14:21:57.989Z,15.82
2023-02-03T14:24:46.052Z,15.65
2023-02-03T14:27:43.831Z,16.65
2023-02-03T14:30:32.652Z,17.00
2023-02-03T14:33:47.068Z,15.07
2023-02-03T14:36:47.343Z,17.52
2023-02-03T14:40:21.388Z,15.85
2023-02-03T14:46:25.123Z,17.95
2023-02-03T14:49:15.879Z,18.42
2023-02-03T14:52:29.721Z,18.17
2023-02-03T14:59:13.469Z,16.92
2023-02-03T15:02:15.634Z,18.52
2023-02-03T15:04:54.042Z,18.25
2023-02-03T15:13:02.184Z,18.05
2023-02-03T15:16:50.211Z,17.55
2023-02-03T15:19:47.539Z,17.77
2023-02-03T15:23:33.789Z,16.77
2023-02-03T15:26:27.252Z,18.52
2023-02-03T15:30:27.389Z,18.67
2023-02-03T15:33:12.367Z,18.63
2023-02-03T15:36:33.870Z,17.17
2023-02-03T15:39:25.691Z,18.10
2023-02-03T15:42:20.585Z,17.38
2023-02-03T15:45:07.004Z,18.38
2023-02-03T15:48:47.643Z,16.88
2023-02-03T15:51:33.947Z,18.05
2023-02-03T15:54:27.142Z,17.05
2023-02-03T15:57:13.238Z,16.92
2023-02-03T16:00:04.623Z,16.63
2023-02-03T16:02:46.227Z,16.63
2023-02-03T16:05:33.965Z,18.05
2023-02-03T16:12:01.418Z,18.55
2023-02-03T16:15:48.816Z,18.20
2023-02-03T16:20:23.188Z,16.00
2023-02-03T16:32:16.759Z,11.93
2023-02-03T16:43:35.999Z,12.30
2023-02-03T16:47:00.830Z,12.40
2023-02-03T16:50:21.573Z,15.45
2023-02-03T16:53:29.881Z,14.80
2023-02-03T16:56:17.543Z,14.27
2023-02-03T16:58:45.871Z,13.68
2023-02-03T17:01:14.225Z,13.07
2023-02-03T17:03:42.764Z,15.55
2023-02-03T17:06:12.380Z,14.98
2023-02-03T17:08:46.162Z,12.85
2023-02-03T17:11:51.095Z,14.68
2023-02-03T17:14:27.561Z,12.63
2023-02-03T17:17:02.403Z,12.85
2023-02-03T17:19:34.152Z,14.23
2023-02-03T17:22:50.577Z,13.93
2023-02-03T17:25:22.619Z,14.10
2023-02-03T17:28:42.952Z,12.93
2023-02-03T17:31:35.189Z,12.57
2023-02-03T17:34:06.933Z,14.48
2023-02-03T17:36:42.684Z,12.93
2023-02-03T17:53:39.086Z,15.60
2023-02-03T17:56:13.763Z,15.13
2023-02-03T17:58:48.126Z,15.13
2023-02-03T18:02:02.080Z,17.27
2023-02-03T18:04:41.728Z,17.65
2023-02-03T18:07:13.165Z,17.98
2023-02-03T18:15:05.510Z,21.45
2023-02-03T18:17:47.553Z,16.40
2023-02-03T18:20:26.439Z,12.75
2023-02-03T18:22:57.253Z,12.80
2023-02-03T18:25:26.072Z,13.30
2023-02-03T18:27:59.642Z,10.18
2023-02-03T18:39:30.220Z,4.65
2023-02-03T18:42:00.696Z,6.75
2023-02-03T18:45:02.879Z,35.13
2023-02-03T18:47:59.004Z,4.93
2023-02-03T18:50:32.265Z,6.25
2023-02-03T18:53:22.985Z,5.63
2023-02-03T18:56:27.289Z,5.32
2023-02-03T18:59:08.848Z,6.53
2023-02-03T19:01:58.213Z,6.50
2023-02-03T19:04:53.310Z,6.90
2023-02-03T19:07:26.359Z,6.18
2023-02-03T19:12:36.394Z,6.00
2023-02-03T19:15:25.222Z,6.80
2023-02-03T19:18:07.424Z,7.10
2023-02-03T19:20:35.420Z,6.82
2023-02-03T19:23:11.145Z,7.30
2023-02-03T19:25:44.796Z,6.95
2023-02-03T19:28:29.909Z,7.47
2023-02-03T19:31:12.014Z,7.47
2023-02-03T19:33:45.722Z,6.55
2023-02-03T19:36:15.803Z,8.07
2023-02-03T19:38:46.392Z,7.75
2023-02-03T19:41:21.713Z,7.82
2023-02-03T19:43:52.262Z,7.95
2023-02-03T19:46:27.516Z,7.05
2023-02-03T19:48:59.226Z,8.30
2023-02-03T19:51:36.130Z,7.43
2023-02-03T19:54:24.812Z,7.72
2023-02-03T19:56:57.255Z,8.35
2023-02-03T19:59:30.908Z,30.55
2023-02-03T20:02:14.466Z,54.70
2023-02-03T20:04:47.770Z,7.05
2023-02-03T20:07:19.090Z,8.35
2023-02-03T20:10:23.229Z,7.38
2023-02-03T20:16:45.156Z,6.45
2023-02-03T20:19:20.492Z,7.18
2023-02-03T20:21:51.321Z,6.95
2023-02-03T20:24:19.338Z,8.00
2023-02-03T20:26:49.655Z,7.75
2023-02-03T20:29:39.848Z,7.15
2023-02-03T20:32:49.466Z,7.38
2023-02-03T20:35:48.897Z,6.70
2023-02-03T20:38:28.690Z,6.03
2023-02-03T20:41:06.814Z,6.32
2023-02-03T20:43:41.138Z,5.70
2023-02-03T20:46:19.638Z,5.45
2023-02-03T20:48:50.915Z,5.90
2023-02-03T20:51:21.408Z,5.40
2023-02-03T20:54:00.597Z,5.75
2023-02-03T20:56:28.641Z,5.35
2023-02-03T20:58:56.807Z,5.70
2023-02-03T21:01:30.886Z,5.18
2023-02-03T21:04:19.361Z,4.95
2023-02-03T21:06:51.688Z,4.65
2023-02-03T21:09:20.903Z,4.20
2023-02-03T21:11:51.367Z,4.93
2023-02-03T21:14:28.165Z,5.60
2023-02-03T21:16:56.304Z,4.50
2023-02-03T21:19:34.944Z,4.28
2023-02-03T21:22:21.133Z,4.50
2023-02-03T21:24:57.494Z,4.60
2023-02-03T21:27:33.728Z,3.95
2023-02-03T21:30:11.408Z,4.97
2023-02-03T21:32:45.075Z,4.10
2023-02-03T21:35:30.285Z,3.92
2023-02-03T21:38:03.199Z,3.25
2023-02-03T21:40:35.165Z,4.28
2023-02-03T21:43:17.301Z,3.97
2023-02-03T21:45:55.778Z,3.78
2023-02-03T21:48:30.374Z,3.55
2023-02-03T21:51:13.664Z,3.80
2023-02-03T21:56:21.110Z,4.60
2023-02-03T21:58:50.961Z,4.10
2023-02-03T22:01:22.025Z,4.13
2023-02-03T22:06:24.117Z,4.32
2023-02-03T22:08:54.355Z,3.83
2023-02-03T22:11:25.451Z,3.92
2023-02-03T22:13:53.313Z,3.65
2023-02-03T22:16:23.617Z,4.25
2023-02-03T22:18:51.772Z,4.18
2023-02-03T22:21:21.713Z,4.30
2023-02-03T22:23:49.564Z,4.43
2023-02-03T22:26:18.037Z,4.25
2023-02-03T22:28:46.026Z,3.53
2023-02-03T22:31:14.118Z,4.07
2023-02-03T22:33:42.600Z,4.45
2023-02-03T22:36:12.638Z,3.90
2023-02-03T22:38:41.655Z,4.47
2023-02-03T22:41:12.229Z,4.85
2023-02-03T22:43:40.773Z,4.55
2023-02-03T22:46:11.731Z,3.75
2023-02-03T22:48:43.803Z,3.92
2023-02-03T22:51:11.684Z,3.45
2023-02-03T22:53:40.025Z,4.43
2023-02-03T22:56:08.549Z,4.63
2023-02-03T22:58:36.424Z,5.03
2023-02-03T23:01:07.883Z,4.88
2023-02-03T23:03:35.907Z,4.50
2023-02-03T23:06:06.362Z,5.07
2023-02-03T23:08:54.038Z,5.50
2023-02-03T23:11:42.676Z,5.70
2023-02-03T23:14:32.952Z,4.50
2023-02-03T23:17:10.270Z,5.03
2023-02-03T23:19:45.417Z,6.18
2023-02-03T23:22:14.234Z,6.10
2023-02-03T23:24:42.492Z,5.63
2023-02-03T23:27:13.248Z,5.55
2023-02-03T23:29:41.622Z,5.90
2023-02-03T23:32:11.077Z,5.95
2023-02-03T23:34:57.117Z,5.75
2023-02-03T23:37:43.547Z,6.63
2023-02-03T23:40:20.765Z,6.40
2023-02-03T23:42:51.107Z,6.40
2023-02-03T23:45:23.041Z,6.15
2023-02-03T23:47:57.552Z,6.75
2023-02-03T23:50:27.154Z,7.53
2023-02-03T23:52:55.157Z,7.68
2023-02-03T23:55:23.645Z,7.78
2023-02-03T23:57:54.197Z,7.22
